sensor_id;sensor_type;location;lat;lon;timestamp;pressure;altitude;pressure_sealevel;temperature;humidity
75188;BME280;63762;51.334;22.108;2022-12-07T00:05:52;101073.67;;;2.77;86.10
75188;BME280;63762;51.334;22.108;2022-12-07T00:16:11;101069.43;;;2.73;85.72
75188;BME280;63762;51.334;22.108;2022-12-07T00:26:10;101072.86;;;2.75;85.48
75188;BME280;63762;51.334;22.108;2022-12-07T00:36:17;101061.03;;;2.62;85.70
75188;BME280;63762;51.334;22.108;2022-12-07T00:46:22;101076.05;;;2.63;85.91
75188;BME280;63762;51.334;22.108;2022-12-07T00:56:29;101063.94;;;2.56;85.97
75188;BME280;63762;51.334;22.108;2022-12-07T01:06:35;101062.09;;;2.58;85.95
75188;BME280;63762;51.334;22.108;2022-12-07T01:16:42;101049.75;;;2.57;86.23
75188;BME280;63762;51.334;22.108;2022-12-07T01:26:50;101050.41;;;2.62;85.72
75188;BME280;63762;51.334;22.108;2022-12-07T01:36:57;101042.69;;;2.56;86.33
75188;BME280;63762;51.334;22.108;2022-12-07T01:47:04;101035.40;;;2.61;85.89
75188;BME280;63762;51.334;22.108;2022-12-07T01:57:11;101035.34;;;2.63;85.79
75188;BME280;63762;51.334;22.108;2022-12-07T02:07:19;101033.41;;;2.66;85.48
75188;BME280;63762;51.334;22.108;2022-12-07T02:27:42;101035.52;;;2.38;86.21
75188;BME280;63762;51.334;22.108;2022-12-07T02:37:53;101022.30;;;2.37;85.74
75188;BME280;63762;51.334;22.108;2022-12-07T02:47:59;101019.55;;;2.18;85.65
75188;BME280;63762;51.334;22.108;2022-12-07T03:18:30;101005.17;;;2.02;86.11
75188;BME280;63762;51.334;22.108;2022-12-07T03:28:36;101007.01;;;2.00;85.47
75188;BME280;63762;51.334;22.108;2022-12-07T03:38:46;101003.48;;;1.99;85.33
75188;BME280;63762;51.334;22.108;2022-12-07T03:49:03;100987.14;;;1.88;85.61
75188;BME280;63762;51.334;22.108;2022-12-07T03:59:03;100996.99;;;1.85;85.44
75188;BME280;63762;51.334;22.108;2022-12-07T04:09:04;100983.19;;;1.77;85.71
75188;BME280;63762;51.334;22.108;2022-12-07T04:19:05;100982.26;;;1.78;85.51
75188;BME280;63762;51.334;22.108;2022-12-07T04:29:07;100975.53;;;1.69;85.85
75188;BME280;63762;51.334;22.108;2022-12-07T04:39:18;100976.64;;;1.64;86.28
75188;BME280;63762;51.334;22.108;2022-12-07T04:49:20;100971.11;;;1.70;85.37
75188;BME280;63762;51.334;22.108;2022-12-07T04:59:21;100980.02;;;1.67;86.17
75188;BME280;63762;51.334;22.108;2022-12-07T05:09:26;100972.34;;;1.83;85.35
75188;BME280;63762;51.334;22.108;2022-12-07T05:19:34;100967.28;;;1.77;85.94
75188;BME280;63762;51.334;22.108;2022-12-07T05:29:41;100958.50;;;1.75;86.07
75188;BME280;63762;51.334;22.108;2022-12-07T05:39:48;100978.24;;;1.89;85.51
75188;BME280;63762;51.334;22.108;2022-12-07T05:49:55;100961.73;;;1.83;85.63
75188;BME280;63762;51.334;22.108;2022-12-07T06:00:07;100967.64;;;1.89;85.21
75188;BME280;63762;51.334;22.108;2022-12-07T06:10:10;100971.41;;;1.84;85.48
75188;BME280;63762;51.334;22.108;2022-12-07T06:20:17;100976.77;;;1.82;85.51
75188;BME280;63762;51.334;22.108;2022-12-07T06:30:23;100973.06;;;1.86;85.09
75188;BME280;63762;51.334;22.108;2022-12-07T06:40:31;100972.95;;;1.68;86.30
75188;BME280;63762;51.334;22.108;2022-12-07T06:50:38;100973.19;;;1.83;85.26
75188;BME280;63762;51.334;22.108;2022-12-07T07:00:45;100972.34;;;1.83;85.12
75188;BME280;63762;51.334;22.108;2022-12-07T07:10:52;100977.66;;;1.83;85.22
75188;BME280;63762;51.334;22.108;2022-12-07T07:20:59;100970.23;;;1.91;85.01
75188;BME280;63762;51.334;22.108;2022-12-07T07:31:06;100964.80;;;1.94;84.47
75188;BME280;63762;51.334;22.108;2022-12-07T07:41:13;100966.28;;;1.79;84.75
75188;BME280;63762;51.334;22.108;2022-12-07T07:51:21;100956.97;;;1.91;84.18
75188;BME280;63762;51.334;22.108;2022-12-07T08:01:28;100977.02;;;1.98;83.27
75188;BME280;63762;51.334;22.108;2022-12-07T08:11:35;100972.59;;;1.77;84.09
75188;BME280;63762;51.334;22.108;2022-12-07T08:21:42;100975.89;;;1.60;84.92
75188;BME280;63762;51.334;22.108;2022-12-07T08:31:49;100994.85;;;1.50;85.64
75188;BME280;63762;51.334;22.108;2022-12-07T08:41:56;100988.30;;;1.60;85.06
75188;BME280;63762;51.334;22.108;2022-12-07T08:52:04;100978.36;;;1.65;85.14
75188;BME280;63762;51.334;22.108;2022-12-07T09:02:11;100986.26;;;1.66;85.07
75188;BME280;63762;51.334;22.108;2022-12-07T09:12:18;100970.58;;;1.60;85.38
75188;BME280;63762;51.334;22.108;2022-12-07T09:22:28;100980.82;;;1.48;86.02
75188;BME280;63762;51.334;22.108;2022-12-07T09:32:32;100972.98;;;1.45;86.45
75188;BME280;63762;51.334;22.108;2022-12-07T09:42:43;100957.80;;;1.48;86.19
75188;BME280;63762;51.334;22.108;2022-12-07T09:52:47;100954.42;;;1.45;86.79
75188;BME280;63762;51.334;22.108;2022-12-07T10:03:00;100959.61;;;1.48;86.76
75188;BME280;63762;51.334;22.108;2022-12-07T10:13:07;100967.98;;;1.59;86.88
75188;BME280;63762;51.334;22.108;2022-12-07T10:23:15;100974.96;;;1.61;86.46
75188;BME280;63762;51.334;22.108;2022-12-07T10:43:30;100967.76;;;1.65;86.43
75188;BME280;63762;51.334;22.108;2022-12-07T11:03:56;100972.10;;;1.89;86.41
75188;BME280;63762;51.334;22.108;2022-12-07T11:14:11;100969.57;;;1.86;86.93
75188;BME280;63762;51.334;22.108;2022-12-07T11:24:22;100974.93;;;2.06;86.31
75188;BME280;63762;51.334;22.108;2022-12-07T11:54:53;100962.06;;;2.17;85.32
75188;BME280;63762;51.334;22.108;2022-12-07T12:15:18;100963.38;;;2.07;85.73
75188;BME280;63762;51.334;22.108;2022-12-07T12:25:28;100953.32;;;2.15;86.08
75188;BME280;63762;51.334;22.108;2022-12-07T12:35:34;100948.62;;;2.42;84.97
75188;BME280;63762;51.334;22.108;2022-12-07T12:45:36;100959.97;;;2.25;84.50
75188;BME280;63762;51.334;22.108;2022-12-07T12:55:49;100969.12;;;2.18;85.23
75188;BME280;63762;51.334;22.108;2022-12-07T13:36:32;100961.66;;;2.06;85.89
75188;BME280;63762;51.334;22.108;2022-12-07T13:56:51;100948.92;;;2.14;85.39
75188;BME280;63762;51.334;22.108;2022-12-07T14:06:52;100960.09;;;2.22;85.23
75188;BME280;63762;51.334;22.108;2022-12-07T14:17:01;100964.41;;;2.24;85.38
75188;BME280;63762;51.334;22.108;2022-12-07T14:27:02;100969.52;;;2.29;85.28
75188;BME280;63762;51.334;22.108;2022-12-07T14:37:08;100962.88;;;2.39;84.88
75188;BME280;63762;51.334;22.108;2022-12-07T14:47:11;100964.09;;;2.52;84.92
75188;BME280;63762;51.334;22.108;2022-12-07T14:57:12;100966.75;;;2.52;84.02
75188;BME280;63762;51.334;22.108;2022-12-07T15:07:19;100959.91;;;2.47;83.96
75188;BME280;63762;51.334;22.108;2022-12-07T15:17:21;100966.23;;;2.44;83.89
75188;BME280;63762;51.334;22.108;2022-12-07T15:27:22;100957.59;;;2.39;83.85
75188;BME280;63762;51.334;22.108;2022-12-07T15:37:23;100958.78;;;2.52;83.08
75188;BME280;63762;51.334;22.108;2022-12-07T15:47:24;100970.05;;;2.37;84.70
75188;BME280;63762;51.334;22.108;2022-12-07T15:57:27;100971.48;;;2.46;83.96
75188;BME280;63762;51.334;22.108;2022-12-07T16:07:28;100966.87;;;2.29;84.40
75188;BME280;63762;51.334;22.108;2022-12-07T16:17:29;100967.56;;;2.12;84.64
75188;BME280;63762;51.334;22.108;2022-12-07T16:27:30;100964.97;;;2.11;85.29
75188;BME280;63762;51.334;22.108;2022-12-07T16:37:32;100960.72;;;2.07;85.37
75188;BME280;63762;51.334;22.108;2022-12-07T16:47:40;100962.44;;;2.08;85.41
75188;BME280;63762;51.334;22.108;2022-12-07T16:57:46;100963.00;;;2.16;85.25
75188;BME280;63762;51.334;22.108;2022-12-07T17:07:53;100967.03;;;2.04;85.64
75188;BME280;63762;51.334;22.108;2022-12-07T17:18:00;100959.72;;;2.09;85.56
75188;BME280;63762;51.334;22.108;2022-12-07T17:28:07;100950.48;;;2.19;85.36
75188;BME280;63762;51.334;22.108;2022-12-07T17:38:15;100956.94;;;2.34;84.96
75188;BME280;63762;51.334;22.108;2022-12-07T17:48:22;100959.91;;;2.26;84.58
75188;BME280;63762;51.334;22.108;2022-12-07T17:58:29;100974.70;;;2.32;83.44
75188;BME280;63762;51.334;22.108;2022-12-07T18:08:36;100988.72;;;2.14;83.42
75188;BME280;63762;51.334;22.108;2022-12-07T18:18:44;100968.09;;;2.00;83.74
75188;BME280;63762;51.334;22.108;2022-12-07T18:28:51;100983.19;;;1.98;83.15
75188;BME280;63762;51.334;22.108;2022-12-07T18:38:58;100988.02;;;1.89;82.51
75188;BME280;63762;51.334;22.108;2022-12-07T18:49:05;100979.60;;;1.78;82.09
75188;BME280;63762;51.334;22.108;2022-12-07T18:59:13;100986.09;;;1.71;82.02
75188;BME280;63762;51.334;22.108;2022-12-07T19:09:26;100979.84;;;1.72;81.70
75188;BME280;63762;51.334;22.108;2022-12-07T19:19:32;100982.55;;;1.70;81.34
75188;BME280;63762;51.334;22.108;2022-12-07T19:29:34;100992.09;;;1.76;81.73
75188;BME280;63762;51.334;22.108;2022-12-07T19:39:41;100988.56;;;1.75;81.42
75188;BME280;63762;51.334;22.108;2022-12-07T19:49:47;100998.87;;;1.83;81.11
75188;BME280;63762;51.334;22.108;2022-12-07T19:59:55;101008.55;;;1.84;81.43
75188;BME280;63762;51.334;22.108;2022-12-07T20:13:08;101005.54;;;1.93;80.83
75188;BME280;63762;51.334;22.108;2022-12-07T20:23:26;101025.15;;;1.89;80.39
75188;BME280;63762;51.334;22.108;2022-12-07T20:33:28;101025.15;;;1.89;79.56
75188;BME280;63762;51.334;22.108;2022-12-07T20:43:30;101044.97;;;1.79;79.80
75188;BME280;63762;51.334;22.108;2022-12-07T20:53:36;101044.80;;;1.83;79.39
75188;BME280;63762;51.334;22.108;2022-12-07T21:03:44;101067.23;;;1.75;80.19
75188;BME280;63762;51.334;22.108;2022-12-07T21:13:51;101092.32;;;1.66;80.16
75188;BME280;63762;51.334;22.108;2022-12-07T21:23:58;101085.37;;;1.64;79.54
75188;BME280;63762;51.334;22.108;2022-12-07T21:34:05;101089.44;;;1.49;79.98
75188;BME280;63762;51.334;22.108;2022-12-07T21:44:12;101103.30;;;1.33;80.58
75188;BME280;63762;51.334;22.108;2022-12-07T21:54:19;101106.77;;;1.35;80.59
75188;BME280;63762;51.334;22.108;2022-12-07T22:04:27;101106.99;;;1.29;80.96
75188;BME280;63762;51.334;22.108;2022-12-07T22:14:34;101097.37;;;1.26;80.45
75188;BME280;63762;51.334;22.108;2022-12-07T22:24:47;101109.27;;;1.15;80.53
75188;BME280;63762;51.334;22.108;2022-12-07T22:34:48;101122.73;;;1.09;81.11
75188;BME280;63762;51.334;22.108;2022-12-07T22:44:55;101131.63;;;1.06;81.20
75188;BME280;63762;51.334;22.108;2022-12-07T22:55:02;101127.04;;;1.11;80.62
75188;BME280;63762;51.334;22.108;2022-12-07T23:05:10;101123.63;;;1.08;80.80
75188;BME280;63762;51.334;22.108;2022-12-07T23:15:16;101119.52;;;0.99;80.69
75188;BME280;63762;51.334;22.108;2022-12-07T23:25:24;101130.10;;;0.99;80.93
75188;BME280;63762;51.334;22.108;2022-12-07T23:35:31;101130.02;;;0.76;81.58
75188;BME280;63762;51.334;22.108;2022-12-07T23:45:38;101124.02;;;0.71;81.90
75188;BME280;63762;51.334;22.108;2022-12-07T23:55:45;101129.97;;;0.78;82.03
